sensor_id;sensor_type;location;lat;lon;timestamp;P1;durP1;ratioP1;P2;durP2;ratioP2
73168;SDS011;61379;59.732;30.468;2023-02-28T00:00:06;7.82;;;7.05;;
73168;SDS011;61379;59.732;30.468;2023-02-28T00:02:35;8.93;;;8.05;;
73168;SDS011;61379;59.732;30.468;2023-02-28T00:05:04;7.45;;;6.85;;
73168;SDS011;61379;59.732;30.468;2023-02-28T00:07:31;7.40;;;6.80;;
73168;SDS011;61379;59.732;30.468;2023-02-28T00:09:58;7.50;;;6.85;;
73168;SDS011;61379;59.732;30.468;2023-02-28T00:12:25;10.65;;;9.55;;
73168;SDS011;61379;59.732;30.468;2023-02-28T00:14:52;11.00;;;9.13;;
73168;SDS011;61379;59.732;30.468;2023-02-28T00:17:19;7.30;;;6.72;;
73168;SDS011;61379;59.732;30.468;2023-02-28T00:19:46;9.38;;;7.38;;
73168;SDS011;61379;59.732;30.468;2023-02-28T00:22:14;6.38;;;5.90;;
73168;SDS011;61379;59.732;30.468;2023-02-28T00:24:41;7.20;;;6.28;;
73168;SDS011;61379;59.732;30.468;2023-02-28T00:27:08;9.18;;;8.13;;
73168;SDS011;61379;59.732;30.468;2023-02-28T00:29:34;10.13;;;8.05;;
73168;SDS011;61379;59.732;30.468;2023-02-28T00:32:01;9.20;;;8.30;;
73168;SDS011;61379;59.732;30.468;2023-02-28T00:34:28;13.00;;;8.88;;
73168;SDS011;61379;59.732;30.468;2023-02-28T00:36:55;7.93;;;6.78;;
73168;SDS011;61379;59.732;30.468;2023-02-28T00:39:23;8.10;;;7.50;;
73168;SDS011;61379;59.732;30.468;2023-02-28T00:41:50;8.07;;;7.28;;
73168;SDS011;61379;59.732;30.468;2023-02-28T00:44:16;8.07;;;7.32;;
73168;SDS011;61379;59.732;30.468;2023-02-28T00:46:43;6.85;;;6.13;;
73168;SDS011;61379;59.732;30.468;2023-02-28T00:49:10;6.63;;;6.07;;
73168;SDS011;61379;59.732;30.468;2023-02-28T00:51:36;6.53;;;5.97;;
73168;SDS011;61379;59.732;30.468;2023-02-28T00:54:03;6.90;;;6.25;;
73168;SDS011;61379;59.732;30.468;2023-02-28T00:56:31;7.28;;;6.57;;
73168;SDS011;61379;59.732;30.468;2023-02-28T00:58:58;6.60;;;6.00;;
73168;SDS011;61379;59.732;30.468;2023-02-28T01:01:24;6.72;;;6.18;;
73168;SDS011;61379;59.732;30.468;2023-02-28T01:03:51;7.18;;;6.65;;
73168;SDS011;61379;59.732;30.468;2023-02-28T01:06:18;6.85;;;6.25;;
73168;SDS011;61379;59.732;30.468;2023-02-28T01:08:44;6.90;;;6.40;;
73168;SDS011;61379;59.732;30.468;2023-02-28T01:11:11;6.70;;;6.10;;
73168;SDS011;61379;59.732;30.468;2023-02-28T01:13:40;6.82;;;6.18;;
73168;SDS011;61379;59.732;30.468;2023-02-28T01:16:06;6.32;;;5.78;;
73168;SDS011;61379;59.732;30.468;2023-02-28T01:18:33;6.50;;;5.90;;
73168;SDS011;61379;59.732;30.468;2023-02-28T01:21:02;5.95;;;5.55;;
73168;SDS011;61379;59.732;30.468;2023-02-28T01:23:29;6.93;;;6.32;;
73168;SDS011;61379;59.732;30.468;2023-02-28T01:25:56;6.43;;;6.03;;
73168;SDS011;61379;59.732;30.468;2023-02-28T01:28:23;6.10;;;5.65;;
73168;SDS011;61379;59.732;30.468;2023-02-28T01:30:51;6.13;;;5.63;;
73168;SDS011;61379;59.732;30.468;2023-02-28T01:33:17;6.18;;;5.78;;
73168;SDS011;61379;59.732;30.468;2023-02-28T01:35:44;6.30;;;5.50;;
73168;SDS011;61379;59.732;30.468;2023-02-28T01:38:11;6.32;;;5.82;;
73168;SDS011;61379;59.732;30.468;2023-02-28T01:40:37;6.13;;;5.72;;
73168;SDS011;61379;59.732;30.468;2023-02-28T01:43:04;5.63;;;5.22;;
73168;SDS011;61379;59.732;30.468;2023-02-28T01:45:31;6.78;;;5.95;;
73168;SDS011;61379;59.732;30.468;2023-02-28T01:48:02;5.95;;;5.55;;
73168;SDS011;61379;59.732;30.468;2023-02-28T01:50:31;5.38;;;4.97;;
73168;SDS011;61379;59.732;30.468;2023-02-28T01:53:00;6.45;;;6.05;;
73168;SDS011;61379;59.732;30.468;2023-02-28T01:55:27;6.40;;;6.00;;
73168;SDS011;61379;59.732;30.468;2023-02-28T01:57:55;6.10;;;5.63;;
73168;SDS011;61379;59.732;30.468;2023-02-28T02:00:23;6.13;;;5.72;;
73168;SDS011;61379;59.732;30.468;2023-02-28T02:02:53;6.57;;;5.97;;
73168;SDS011;61379;59.732;30.468;2023-02-28T02:05:23;6.28;;;5.78;;
73168;SDS011;61379;59.732;30.468;2023-02-28T02:07:51;6.18;;;5.78;;
73168;SDS011;61379;59.732;30.468;2023-02-28T02:10:19;6.38;;;5.88;;
73168;SDS011;61379;59.732;30.468;2023-02-28T02:12:56;6.28;;;5.88;;
73168;SDS011;61379;59.732;30.468;2023-02-28T02:15:48;6.40;;;5.90;;
73168;SDS011;61379;59.732;30.468;2023-02-28T02:18:17;6.07;;;5.68;;
73168;SDS011;61379;59.732;30.468;2023-02-28T02:26:31;6.40;;;6.00;;
73168;SDS011;61379;59.732;30.468;2023-02-28T02:29:27;5.93;;;5.53;;
73168;SDS011;61379;59.732;30.468;2023-02-28T02:34:30;6.57;;;6.18;;
73168;SDS011;61379;59.732;30.468;2023-02-28T02:37:04;7.35;;;6.55;;
73168;SDS011;61379;59.732;30.468;2023-02-28T02:39:36;6.60;;;6.20;;
73168;SDS011;61379;59.732;30.468;2023-02-28T02:42:06;6.82;;;5.95;;
73168;SDS011;61379;59.732;30.468;2023-02-28T02:44:37;6.55;;;6.00;;
73168;SDS011;61379;59.732;30.468;2023-02-28T02:47:09;7.57;;;7.07;;
73168;SDS011;61379;59.732;30.468;2023-02-28T02:49:38;7.78;;;7.38;;
73168;SDS011;61379;59.732;30.468;2023-02-28T02:52:07;7.05;;;6.65;;
73168;SDS011;61379;59.732;30.468;2023-02-28T02:54:35;7.55;;;7.03;;
73168;SDS011;61379;59.732;30.468;2023-02-28T02:57:04;7.05;;;6.53;;
73168;SDS011;61379;59.732;30.468;2023-02-28T02:59:33;7.50;;;7.00;;
73168;SDS011;61379;59.732;30.468;2023-02-28T03:02:01;7.00;;;6.53;;
73168;SDS011;61379;59.732;30.468;2023-02-28T03:04:30;7.03;;;6.63;;
73168;SDS011;61379;59.732;30.468;2023-02-28T03:07:00;7.45;;;6.97;;
73168;SDS011;61379;59.732;30.468;2023-02-28T03:09:26;7.22;;;6.75;;
73168;SDS011;61379;59.732;30.468;2023-02-28T03:11:54;7.22;;;6.72;;
73168;SDS011;61379;59.732;30.468;2023-02-28T03:14:25;6.80;;;6.40;;
73168;SDS011;61379;59.732;30.468;2023-02-28T03:16:58;7.90;;;7.30;;
73168;SDS011;61379;59.732;30.468;2023-02-28T03:19:32;7.15;;;6.70;;
73168;SDS011;61379;59.732;30.468;2023-02-28T03:22:14;7.15;;;6.75;;
73168;SDS011;61379;59.732;30.468;2023-02-28T03:24:42;7.63;;;7.13;;
73168;SDS011;61379;59.732;30.468;2023-02-28T03:27:11;7.72;;;7.22;;
73168;SDS011;61379;59.732;30.468;2023-02-28T03:29:40;6.93;;;6.53;;
73168;SDS011;61379;59.732;30.468;2023-02-28T03:32:11;7.15;;;6.75;;
73168;SDS011;61379;59.732;30.468;2023-02-28T03:34:43;7.75;;;7.25;;
73168;SDS011;61379;59.732;30.468;2023-02-28T03:37:15;7.30;;;6.90;;
73168;SDS011;61379;59.732;30.468;2023-02-28T03:39:43;7.78;;;7.38;;
73168;SDS011;61379;59.732;30.468;2023-02-28T03:42:11;7.75;;;7.28;;
73168;SDS011;61379;59.732;30.468;2023-02-28T03:44:40;7.80;;;7.32;;
73168;SDS011;61379;59.732;30.468;2023-02-28T03:47:09;7.78;;;7.28;;
73168;SDS011;61379;59.732;30.468;2023-02-28T03:49:38;8.20;;;7.72;;
73168;SDS011;61379;59.732;30.468;2023-02-28T03:52:08;7.85;;;7.45;;
73168;SDS011;61379;59.732;30.468;2023-02-28T03:54:37;7.10;;;6.50;;
73168;SDS011;61379;59.732;30.468;2023-02-28T03:57:07;7.22;;;6.78;;
73168;SDS011;61379;59.732;30.468;2023-02-28T03:59:37;7.53;;;7.03;;
73168;SDS011;61379;59.732;30.468;2023-02-28T04:02:05;14.65;;;9.25;;
73168;SDS011;61379;59.732;30.468;2023-02-28T04:04:32;10.48;;;9.40;;
73168;SDS011;61379;59.732;30.468;2023-02-28T04:07:03;9.57;;;8.77;;
73168;SDS011;61379;59.732;30.468;2023-02-28T04:09:30;10.98;;;9.98;;
73168;SDS011;61379;59.732;30.468;2023-02-28T04:11:58;11.85;;;10.75;;
73168;SDS011;61379;59.732;30.468;2023-02-28T04:14:25;9.32;;;8.57;;
73168;SDS011;61379;59.732;30.468;2023-02-28T04:16:52;8.00;;;7.50;;
73168;SDS011;61379;59.732;30.468;2023-02-28T04:19:19;8.02;;;7.53;;
73168;SDS011;61379;59.732;30.468;2023-02-28T04:21:46;8.25;;;7.63;;
73168;SDS011;61379;59.732;30.468;2023-02-28T04:24:13;8.23;;;7.53;;
73168;SDS011;61379;59.732;30.468;2023-02-28T04:26:42;8.10;;;7.55;;
73168;SDS011;61379;59.732;30.468;2023-02-28T04:29:10;7.93;;;7.43;;
73168;SDS011;61379;59.732;30.468;2023-02-28T04:31:37;8.63;;;8.13;;
73168;SDS011;61379;59.732;30.468;2023-02-28T04:34:04;7.88;;;7.28;;
73168;SDS011;61379;59.732;30.468;2023-02-28T04:36:30;8.35;;;7.75;;
73168;SDS011;61379;59.732;30.468;2023-02-28T04:38:57;8.55;;;7.93;;
73168;SDS011;61379;59.732;30.468;2023-02-28T04:41:24;8.13;;;7.63;;
73168;SDS011;61379;59.732;30.468;2023-02-28T04:43:51;9.48;;;8.88;;
73168;SDS011;61379;59.732;30.468;2023-02-28T04:46:19;7.78;;;7.28;;
73168;SDS011;61379;59.732;30.468;2023-02-28T04:48:46;8.10;;;7.60;;
73168;SDS011;61379;59.732;30.468;2023-02-28T04:51:13;7.85;;;7.35;;
73168;SDS011;61379;59.732;30.468;2023-02-28T04:53:40;7.78;;;7.38;;
73168;SDS011;61379;59.732;30.468;2023-02-28T04:56:08;8.20;;;7.68;;
73168;SDS011;61379;59.732;30.468;2023-02-28T04:58:36;7.45;;;7.05;;
73168;SDS011;61379;59.732;30.468;2023-02-28T05:01:03;8.02;;;7.55;;
73168;SDS011;61379;59.732;30.468;2023-02-28T05:03:39;7.13;;;6.72;;
73168;SDS011;61379;59.732;30.468;2023-02-28T05:06:06;7.72;;;7.28;;
73168;SDS011;61379;59.732;30.468;2023-02-28T05:08:33;8.05;;;7.65;;
73168;SDS011;61379;59.732;30.468;2023-02-28T05:11:00;8.38;;;7.78;;
73168;SDS011;61379;59.732;30.468;2023-02-28T05:13:27;8.02;;;7.55;;
73168;SDS011;61379;59.732;30.468;2023-02-28T05:15:53;8.25;;;7.75;;
73168;SDS011;61379;59.732;30.468;2023-02-28T05:18:20;7.88;;;7.38;;
73168;SDS011;61379;59.732;30.468;2023-02-28T05:20:48;7.82;;;7.18;;
73168;SDS011;61379;59.732;30.468;2023-02-28T05:23:15;7.88;;;7.38;;
73168;SDS011;61379;59.732;30.468;2023-02-28T05:25:44;6.97;;;6.47;;
73168;SDS011;61379;59.732;30.468;2023-02-28T05:28:10;7.20;;;6.80;;
73168;SDS011;61379;59.732;30.468;2023-02-28T05:30:37;8.75;;;8.15;;
73168;SDS011;61379;59.732;30.468;2023-02-28T05:33:03;7.97;;;7.47;;
73168;SDS011;61379;59.732;30.468;2023-02-28T05:35:30;8.70;;;8.10;;
73168;SDS011;61379;59.732;30.468;2023-02-28T05:37:58;8.95;;;8.30;;
73168;SDS011;61379;59.732;30.468;2023-02-28T05:40:25;12.23;;;11.02;;
73168;SDS011;61379;59.732;30.468;2023-02-28T05:42:51;12.55;;;11.40;;
73168;SDS011;61379;59.732;30.468;2023-02-28T05:45:18;11.60;;;10.65;;
73168;SDS011;61379;59.732;30.468;2023-02-28T05:47:45;9.02;;;8.32;;
73168;SDS011;61379;59.732;30.468;2023-02-28T05:50:11;8.13;;;7.63;;
73168;SDS011;61379;59.732;30.468;2023-02-28T05:52:38;8.48;;;7.97;;
73168;SDS011;61379;59.732;30.468;2023-02-28T05:55:07;7.95;;;7.25;;
73168;SDS011;61379;59.732;30.468;2023-02-28T05:57:33;9.43;;;8.10;;
73168;SDS011;61379;59.732;30.468;2023-02-28T06:00:00;8.65;;;8.05;;
73168;SDS011;61379;59.732;30.468;2023-02-28T06:02:29;8.15;;;7.55;;
73168;SDS011;61379;59.732;30.468;2023-02-28T06:04:56;8.52;;;8.00;;
73168;SDS011;61379;59.732;30.468;2023-02-28T06:07:22;9.00;;;8.30;;
73168;SDS011;61379;59.732;30.468;2023-02-28T06:09:49;9.25;;;8.43;;
73168;SDS011;61379;59.732;30.468;2023-02-28T06:12:17;8.70;;;8.07;;
73168;SDS011;61379;59.732;30.468;2023-02-28T06:14:44;8.77;;;8.18;;
73168;SDS011;61379;59.732;30.468;2023-02-28T06:17:10;8.63;;;7.93;;
73168;SDS011;61379;59.732;30.468;2023-02-28T06:19:37;8.95;;;8.25;;
73168;SDS011;61379;59.732;30.468;2023-02-28T06:22:06;9.70;;;7.88;;
73168;SDS011;61379;59.732;30.468;2023-02-28T06:24:33;8.18;;;7.68;;
73168;SDS011;61379;59.732;30.468;2023-02-28T06:27:00;8.10;;;7.68;;
73168;SDS011;61379;59.732;30.468;2023-02-28T06:31:57;7.65;;;7.25;;
73168;SDS011;61379;59.732;30.468;2023-02-28T06:34:24;7.97;;;7.55;;
73168;SDS011;61379;59.732;30.468;2023-02-28T06:36:51;7.72;;;7.32;;
73168;SDS011;61379;59.732;30.468;2023-02-28T06:39:18;7.93;;;7.38;;
73168;SDS011;61379;59.732;30.468;2023-02-28T06:41:44;7.80;;;7.38;;
73168;SDS011;61379;59.732;30.468;2023-02-28T06:44:11;8.18;;;7.57;;
73168;SDS011;61379;59.732;30.468;2023-02-28T06:46:38;7.72;;;7.07;;
73168;SDS011;61379;59.732;30.468;2023-02-28T06:49:06;7.30;;;6.80;;
73168;SDS011;61379;59.732;30.468;2023-02-28T06:51:35;7.60;;;7.10;;
73168;SDS011;61379;59.732;30.468;2023-02-28T06:54:02;7.30;;;6.90;;
73168;SDS011;61379;59.732;30.468;2023-02-28T06:56:28;7.45;;;6.95;;
73168;SDS011;61379;59.732;30.468;2023-02-28T06:58:55;7.80;;;7.20;;
73168;SDS011;61379;59.732;30.468;2023-02-28T07:01:22;7.90;;;7.30;;
73168;SDS011;61379;59.732;30.468;2023-02-28T07:03:49;7.75;;;7.25;;
73168;SDS011;61379;59.732;30.468;2023-02-28T07:06:18;7.30;;;6.80;;
73168;SDS011;61379;59.732;30.468;2023-02-28T07:08:47;7.97;;;7.38;;
73168;SDS011;61379;59.732;30.468;2023-02-28T07:11:13;8.90;;;7.10;;
73168;SDS011;61379;59.732;30.468;2023-02-28T07:13:40;8.02;;;7.25;;
73168;SDS011;61379;59.732;30.468;2023-02-28T07:16:08;8.05;;;7.65;;
73168;SDS011;61379;59.732;30.468;2023-02-28T07:18:35;8.20;;;7.50;;
73168;SDS011;61379;59.732;30.468;2023-02-28T07:21:02;8.18;;;7.68;;
73168;SDS011;61379;59.732;30.468;2023-02-28T07:23:31;8.90;;;8.27;;
73168;SDS011;61379;59.732;30.468;2023-02-28T07:25:57;7.85;;;7.35;;
73168;SDS011;61379;59.732;30.468;2023-02-28T07:28:24;8.73;;;7.55;;
73168;SDS011;61379;59.732;30.468;2023-02-28T07:30:51;8.25;;;7.75;;
73168;SDS011;61379;59.732;30.468;2023-02-28T07:33:18;7.65;;;6.82;;
73168;SDS011;61379;59.732;30.468;2023-02-28T07:35:44;7.72;;;7.05;;
73168;SDS011;61379;59.732;30.468;2023-02-28T07:38:11;7.18;;;6.68;;
73168;SDS011;61379;59.732;30.468;2023-02-28T07:40:40;7.65;;;6.97;;
73168;SDS011;61379;59.732;30.468;2023-02-28T07:43:06;7.53;;;7.00;;
73168;SDS011;61379;59.732;30.468;2023-02-28T07:45:33;6.93;;;6.43;;
73168;SDS011;61379;59.732;30.468;2023-02-28T07:48:00;7.75;;;7.05;;
73168;SDS011;61379;59.732;30.468;2023-02-28T07:50:27;7.03;;;6.18;;
73168;SDS011;61379;59.732;30.468;2023-02-28T07:52:56;6.55;;;6.05;;
73168;SDS011;61379;59.732;30.468;2023-02-28T07:55:22;7.22;;;6.60;;
73168;SDS011;61379;59.732;30.468;2023-02-28T07:57:50;7.53;;;6.93;;
73168;SDS011;61379;59.732;30.468;2023-02-28T08:00:17;6.88;;;6.38;;
73168;SDS011;61379;59.732;30.468;2023-02-28T08:02:44;7.18;;;6.68;;
73168;SDS011;61379;59.732;30.468;2023-02-28T08:05:11;7.78;;;7.28;;
73168;SDS011;61379;59.732;30.468;2023-02-28T08:07:37;7.70;;;7.00;;
73168;SDS011;61379;59.732;30.468;2023-02-28T08:10:04;8.15;;;7.35;;
73168;SDS011;61379;59.732;30.468;2023-02-28T08:12:31;7.78;;;7.07;;
73168;SDS011;61379;59.732;30.468;2023-02-28T08:15:00;7.40;;;6.90;;
73168;SDS011;61379;59.732;30.468;2023-02-28T08:17:26;7.65;;;7.05;;
73168;SDS011;61379;59.732;30.468;2023-02-28T08:19:53;7.60;;;7.20;;
73168;SDS011;61379;59.732;30.468;2023-02-28T08:22:20;7.05;;;6.45;;
73168;SDS011;61379;59.732;30.468;2023-02-28T08:24:47;7.30;;;6.70;;
73168;SDS011;61379;59.732;30.468;2023-02-28T08:27:14;7.35;;;6.70;;
73168;SDS011;61379;59.732;30.468;2023-02-28T08:29:41;7.50;;;6.90;;
73168;SDS011;61379;59.732;30.468;2023-02-28T08:32:09;8.10;;;7.30;;
73168;SDS011;61379;59.732;30.468;2023-02-28T08:34:36;7.30;;;6.90;;
73168;SDS011;61379;59.732;30.468;2023-02-28T08:37:05;7.85;;;7.15;;
73168;SDS011;61379;59.732;30.468;2023-02-28T08:39:33;8.10;;;7.30;;
73168;SDS011;61379;59.732;30.468;2023-02-28T08:42:00;7.88;;;7.07;;
73168;SDS011;61379;59.732;30.468;2023-02-28T08:44:27;7.57;;;6.88;;
73168;SDS011;61379;59.732;30.468;2023-02-28T08:46:54;7.45;;;6.75;;
73168;SDS011;61379;59.732;30.468;2023-02-28T08:49:22;7.22;;;6.72;;
73168;SDS011;61379;59.732;30.468;2023-02-28T08:51:48;6.80;;;6.40;;
73168;SDS011;61379;59.732;30.468;2023-02-28T08:54:15;8.85;;;8.15;;
73168;SDS011;61379;59.732;30.468;2023-02-28T08:56:44;7.65;;;7.03;;
73168;SDS011;61379;59.732;30.468;2023-02-28T08:59:11;7.93;;;7.43;;
73168;SDS011;61379;59.732;30.468;2023-02-28T09:01:38;8.07;;;7.38;;
73168;SDS011;61379;59.732;30.468;2023-02-28T09:04:06;7.97;;;7.28;;
73168;SDS011;61379;59.732;30.468;2023-02-28T09:06:35;8.88;;;8.13;;
73168;SDS011;61379;59.732;30.468;2023-02-28T09:09:02;10.15;;;8.10;;
73168;SDS011;61379;59.732;30.468;2023-02-28T09:11:31;7.93;;;7.43;;
73168;SDS011;61379;59.732;30.468;2023-02-28T09:13:57;9.18;;;8.32;;
73168;SDS011;61379;59.732;30.468;2023-02-28T09:16:25;8.20;;;7.50;;
73168;SDS011;61379;59.732;30.468;2023-02-28T09:18:52;8.98;;;8.15;;
73168;SDS011;61379;59.732;30.468;2023-02-28T09:21:19;8.80;;;8.07;;
73168;SDS011;61379;59.732;30.468;2023-02-28T09:23:47;8.77;;;8.07;;
73168;SDS011;61379;59.732;30.468;2023-02-28T09:26:15;7.97;;;7.50;;
73168;SDS011;61379;59.732;30.468;2023-02-28T09:28:41;7.70;;;7.20;;
73168;SDS011;61379;59.732;30.468;2023-02-28T09:31:10;7.38;;;6.78;;
73168;SDS011;61379;59.732;30.468;2023-02-28T09:33:38;8.38;;;7.60;;
73168;SDS011;61379;59.732;30.468;2023-02-28T09:36:05;8.80;;;8.20;;
73168;SDS011;61379;59.732;30.468;2023-02-28T09:38:31;8.05;;;7.55;;
73168;SDS011;61379;59.732;30.468;2023-02-28T09:41:00;8.25;;;7.75;;
73168;SDS011;61379;59.732;30.468;2023-02-28T09:43:28;8.07;;;7.53;;
73168;SDS011;61379;59.732;30.468;2023-02-28T09:45:56;7.30;;;6.70;;
73168;SDS011;61379;59.732;30.468;2023-02-28T09:48:27;8.02;;;7.28;;
73168;SDS011;61379;59.732;30.468;2023-02-28T09:51:00;8.15;;;7.45;;
73168;SDS011;61379;59.732;30.468;2023-02-28T09:53:28;7.72;;;7.13;;
73168;SDS011;61379;59.732;30.468;2023-02-28T09:56:01;7.90;;;7.20;;
73168;SDS011;61379;59.732;30.468;2023-02-28T09:58:30;7.90;;;7.40;;
73168;SDS011;61379;59.732;30.468;2023-02-28T10:00:59;7.57;;;6.97;;
73168;SDS011;61379;59.732;30.468;2023-02-28T10:03:30;7.97;;;7.40;;
73168;SDS011;61379;59.732;30.468;2023-02-28T10:08:26;7.95;;;7.28;;
73168;SDS011;61379;59.732;30.468;2023-02-28T10:10:54;7.63;;;7.13;;
73168;SDS011;61379;59.732;30.468;2023-02-28T10:13:24;7.70;;;7.10;;
73168;SDS011;61379;59.732;30.468;2023-02-28T10:15:53;7.60;;;7.10;;
73168;SDS011;61379;59.732;30.468;2023-02-28T10:18:21;8.20;;;7.45;;
73168;SDS011;61379;59.732;30.468;2023-02-28T10:20:50;8.52;;;7.80;;
73168;SDS011;61379;59.732;30.468;2023-02-28T10:23:20;7.93;;;7.20;;
73168;SDS011;61379;59.732;30.468;2023-02-28T10:25:48;8.00;;;7.50;;
73168;SDS011;61379;59.732;30.468;2023-02-28T10:28:16;7.45;;;6.95;;
73168;SDS011;61379;59.732;30.468;2023-02-28T10:30:46;7.53;;;7.00;;
73168;SDS011;61379;59.732;30.468;2023-02-28T10:35:40;7.65;;;7.13;;
73168;SDS011;61379;59.732;30.468;2023-02-28T10:38:10;8.15;;;7.53;;
73168;SDS011;61379;59.732;30.468;2023-02-28T10:40:40;8.43;;;7.63;;
73168;SDS011;61379;59.732;30.468;2023-02-28T10:43:16;8.18;;;7.68;;
73168;SDS011;61379;59.732;30.468;2023-02-28T10:45:53;8.23;;;7.55;;
73168;SDS011;61379;59.732;30.468;2023-02-28T10:48:27;7.72;;;7.13;;
73168;SDS011;61379;59.732;30.468;2023-02-28T10:50:55;8.23;;;7.60;;
73168;SDS011;61379;59.732;30.468;2023-02-28T10:53:27;7.40;;;7.00;;
73168;SDS011;61379;59.732;30.468;2023-02-28T10:55:58;7.72;;;7.20;;
73168;SDS011;61379;59.732;30.468;2023-02-28T10:58:26;7.82;;;7.22;;
73168;SDS011;61379;59.732;30.468;2023-02-28T11:00:55;7.43;;;7.00;;
73168;SDS011;61379;59.732;30.468;2023-02-28T11:03:28;8.07;;;7.55;;
73168;SDS011;61379;59.732;30.468;2023-02-28T11:05:55;7.25;;;6.75;;
73168;SDS011;61379;59.732;30.468;2023-02-28T11:08:22;7.05;;;6.32;;
73168;SDS011;61379;59.732;30.468;2023-02-28T11:10:53;7.32;;;6.70;;
73168;SDS011;61379;59.732;30.468;2023-02-28T11:13:21;7.30;;;6.60;;
73168;SDS011;61379;59.732;30.468;2023-02-28T11:15:51;7.55;;;6.97;;
73168;SDS011;61379;59.732;30.468;2023-02-28T11:18:22;7.60;;;7.00;;
73168;SDS011;61379;59.732;30.468;2023-02-28T11:20:51;7.50;;;6.85;;
73168;SDS011;61379;59.732;30.468;2023-02-28T11:23:19;6.63;;;6.18;;
73168;SDS011;61379;59.732;30.468;2023-02-28T11:25:46;6.15;;;5.75;;
73168;SDS011;61379;59.732;30.468;2023-02-28T11:28:24;6.70;;;6.20;;
73168;SDS011;61379;59.732;30.468;2023-02-28T11:30:59;6.40;;;5.90;;
73168;SDS011;61379;59.732;30.468;2023-02-28T11:33:28;6.63;;;6.00;;
73168;SDS011;61379;59.732;30.468;2023-02-28T11:35:57;6.60;;;6.13;;
73168;SDS011;61379;59.732;30.468;2023-02-28T11:38:25;6.95;;;6.18;;
73168;SDS011;61379;59.732;30.468;2023-02-28T11:40:56;6.38;;;5.88;;
73168;SDS011;61379;59.732;30.468;2023-02-28T11:43:30;7.00;;;6.47;;
73168;SDS011;61379;59.732;30.468;2023-02-28T11:46:04;6.80;;;6.30;;
73168;SDS011;61379;59.732;30.468;2023-02-28T11:48:35;6.78;;;6.15;;
73168;SDS011;61379;59.732;30.468;2023-02-28T11:51:06;6.85;;;6.28;;
73168;SDS011;61379;59.732;30.468;2023-02-28T11:53:43;7.25;;;6.65;;
73168;SDS011;61379;59.732;30.468;2023-02-28T11:56:14;6.05;;;5.55;;
73168;SDS011;61379;59.732;30.468;2023-02-28T11:58:45;5.75;;;5.35;;
73168;SDS011;61379;59.732;30.468;2023-02-28T12:01:19;5.90;;;5.50;;
73168;SDS011;61379;59.732;30.468;2023-02-28T12:03:55;6.22;;;5.68;;
73168;SDS011;61379;59.732;30.468;2023-02-28T12:06:25;6.60;;;6.10;;
73168;SDS011;61379;59.732;30.468;2023-02-28T12:11:41;6.57;;;6.10;;
73168;SDS011;61379;59.732;30.468;2023-02-28T12:14:19;6.57;;;6.07;;
73168;SDS011;61379;59.732;30.468;2023-02-28T12:16:51;7.05;;;6.50;;
73168;SDS011;61379;59.732;30.468;2023-02-28T12:19:24;6.95;;;6.35;;
73168;SDS011;61379;59.732;30.468;2023-02-28T12:22:05;6.93;;;6.43;;
73168;SDS011;61379;59.732;30.468;2023-02-28T12:24:41;6.80;;;6.35;;
73168;SDS011;61379;59.732;30.468;2023-02-28T12:27:11;7.07;;;6.47;;
73168;SDS011;61379;59.732;30.468;2023-02-28T12:29:40;7.47;;;6.72;;
73168;SDS011;61379;59.732;30.468;2023-02-28T12:32:10;7.70;;;6.97;;
73168;SDS011;61379;59.732;30.468;2023-02-28T12:34:42;7.28;;;6.68;;
73168;SDS011;61379;59.732;30.468;2023-02-28T12:37:14;7.13;;;6.53;;
73168;SDS011;61379;59.732;30.468;2023-02-28T12:39:43;7.68;;;6.13;;
73168;SDS011;61379;59.732;30.468;2023-02-28T12:42:10;6.25;;;5.75;;
73168;SDS011;61379;59.732;30.468;2023-02-28T12:44:40;6.45;;;5.95;;
73168;SDS011;61379;59.732;30.468;2023-02-28T12:47:11;6.47;;;5.97;;
73168;SDS011;61379;59.732;30.468;2023-02-28T12:52:07;6.40;;;5.80;;
73168;SDS011;61379;59.732;30.468;2023-02-28T12:54:38;6.75;;;5.28;;
73168;SDS011;61379;59.732;30.468;2023-02-28T12:57:07;5.43;;;5.03;;
73168;SDS011;61379;59.732;30.468;2023-02-28T12:59:36;5.95;;;5.50;;
73168;SDS011;61379;59.732;30.468;2023-02-28T13:02:19;5.95;;;5.53;;
73168;SDS011;61379;59.732;30.468;2023-02-28T13:04:54;6.20;;;5.60;;
73168;SDS011;61379;59.732;30.468;2023-02-28T13:10:05;6.32;;;5.80;;
73168;SDS011;61379;59.732;30.468;2023-02-28T13:12:33;6.25;;;5.80;;
73168;SDS011;61379;59.732;30.468;2023-02-28T13:15:02;5.72;;;5.22;;
73168;SDS011;61379;59.732;30.468;2023-02-28T13:17:30;6.00;;;5.60;;
73168;SDS011;61379;59.732;30.468;2023-02-28T13:19:57;6.20;;;5.50;;
73168;SDS011;61379;59.732;30.468;2023-02-28T13:27:58;6.75;;;5.47;;
73168;SDS011;61379;59.732;30.468;2023-02-28T13:33:24;5.80;;;5.32;;
73168;SDS011;61379;59.732;30.468;2023-02-28T13:36:11;6.07;;;5.57;;
73168;SDS011;61379;59.732;30.468;2023-02-28T13:38:49;5.88;;;4.97;;
73168;SDS011;61379;59.732;30.468;2023-02-28T13:44:04;6.05;;;5.57;;
73168;SDS011;61379;59.732;30.468;2023-02-28T13:51:40;5.57;;;5.05;;
73168;SDS011;61379;59.732;30.468;2023-02-28T13:54:15;5.95;;;5.53;;
73168;SDS011;61379;59.732;30.468;2023-02-28T13:56:45;6.25;;;5.75;;
73168;SDS011;61379;59.732;30.468;2023-02-28T13:59:19;7.13;;;5.05;;
73168;SDS011;61379;59.732;30.468;2023-02-28T14:01:54;5.80;;;5.30;;
73168;SDS011;61379;59.732;30.468;2023-02-28T14:04:28;6.78;;;5.72;;
73168;SDS011;61379;59.732;30.468;2023-02-28T14:07:00;5.80;;;5.32;;
73168;SDS011;61379;59.732;30.468;2023-02-28T14:09:28;6.00;;;5.60;;
73168;SDS011;61379;59.732;30.468;2023-02-28T14:11:55;5.70;;;5.07;;
73168;SDS011;61379;59.732;30.468;2023-02-28T14:17:12;5.88;;;5.30;;
73168;SDS011;61379;59.732;30.468;2023-02-28T14:19:40;6.30;;;5.82;;
73168;SDS011;61379;59.732;30.468;2023-02-28T14:22:12;6.50;;;5.93;;
73168;SDS011;61379;59.732;30.468;2023-02-28T14:24:51;5.78;;;5.28;;
73168;SDS011;61379;59.732;30.468;2023-02-28T14:27:30;5.97;;;5.38;;
73168;SDS011;61379;59.732;30.468;2023-02-28T14:30:05;5.97;;;5.47;;
73168;SDS011;61379;59.732;30.468;2023-02-28T14:32:40;5.80;;;5.28;;
73168;SDS011;61379;59.732;30.468;2023-02-28T14:35:13;6.47;;;5.97;;
73168;SDS011;61379;59.732;30.468;2023-02-28T14:37:42;11.40;;;5.63;;
73168;SDS011;61379;59.732;30.468;2023-02-28T14:40:14;6.82;;;5.53;;
73168;SDS011;61379;59.732;30.468;2023-02-28T14:42:45;6.80;;;5.63;;
73168;SDS011;61379;59.732;30.468;2023-02-28T14:45:17;6.25;;;5.68;;
73168;SDS011;61379;59.732;30.468;2023-02-28T14:47:45;6.25;;;5.82;;
73168;SDS011;61379;59.732;30.468;2023-02-28T14:50:17;6.03;;;5.43;;
73168;SDS011;61379;59.732;30.468;2023-02-28T14:52:44;5.68;;;5.28;;
73168;SDS011;61379;59.732;30.468;2023-02-28T14:55:12;6.60;;;5.60;;
73168;SDS011;61379;59.732;30.468;2023-02-28T14:57:41;6.38;;;5.80;;
73168;SDS011;61379;59.732;30.468;2023-02-28T15:00:11;6.35;;;5.30;;
73168;SDS011;61379;59.732;30.468;2023-02-28T15:02:39;7.07;;;6.47;;
73168;SDS011;61379;59.732;30.468;2023-02-28T15:05:16;5.78;;;5.22;;
73168;SDS011;61379;59.732;30.468;2023-02-28T15:07:46;5.78;;;5.28;;
73168;SDS011;61379;59.732;30.468;2023-02-28T15:10:17;6.55;;;5.78;;
73168;SDS011;61379;59.732;30.468;2023-02-28T15:12:47;5.38;;;4.97;;
73168;SDS011;61379;59.732;30.468;2023-02-28T15:15:15;5.70;;;5.30;;
73168;SDS011;61379;59.732;30.468;2023-02-28T15:17:43;6.25;;;5.75;;
73168;SDS011;61379;59.732;30.468;2023-02-28T15:20:14;8.75;;;5.72;;
73168;SDS011;61379;59.732;30.468;2023-02-28T15:22:42;5.88;;;5.38;;
73168;SDS011;61379;59.732;30.468;2023-02-28T15:25:09;6.68;;;6.03;;